General Mariano Escobedo International Airport
MMMY : now visible

Airfield :











YOU CAN JOIN US ON...

 
LOGIN :

Register | Disclaimer

   EN    FR    IT 

 









Legend :    VFR   Marginal VFR   IFR   Intensive IFR   Very Intensive IFR
Visi :
Ceiling :
>= 8 km
>= 3000ft
5 to 8 km
1000 to 3000 ft
1500m to 5 km
500 to 1000 ft
800 to 1500m
200 to 500 ft
< 800m
< 200 ft
Symbols :   Thunderstorms  Fog  Heavy snow  Heavy precipitations  Wind > 20 kt






- Airport Elevation : 1278 ft
- IATA code : MTY


MMMY - General Mariano Escobedo International

CURRENT METAR :
  • 200742Z 00000KT 10SM SKC 23/21 A2978

EXPIRED METARs :
  • 200641Z 00000KT 10SM SCT050 24/21 A2979 RMK 8/500
  • 200540Z 07004KT 10SM BKN050 24/19 A2979 RMK SLP/// 5//// 9// 8/500

TAF TAF MMMY
Valid from the 20 at 06:00 until the 21 at 12:00 UTC


200448Z 2006/2112 02005KT P6SM SKC TX36/2021Z TN18/2011Z
TEMPO 2012/2015 BKN010
FM201800 13010KT P6SM SCT030
TEMPO 2023/2103 5SM TSRA BKN030CB
FM210300 13005KT 6SM HZ BKN020 BKN100
TEMPO 2103/2106 5SM TSRA BKN020CB



MET'MAP, your aeronautical weather chart ! - Copyright ORBIFLY December 2007 - Disclaimer

ORBIFLY MET'MAP TEAM :

Programming & Development : Alexandra Zaïnal
Concept & Development : Baudouin d'Aumeries
Co-Development & Prog : Marc-Olivier Méhu
Technical & hardware support : Manuel Goepfert

Contact : metmap@orbifly.com




SOURCES & CREDITS :

   NOAA       Earth
Advisory